Time,TemperatureF,DewpointF,PressureIn,WindDirection,WindDirectionDegrees,WindSpeedMPH,WindSpeedGustMPH,Humidity,HourlyPrecipIn,Conditions,Clouds,dailyrainin,SoftwareType,DateUTC
2013-05-11 00:00:00,41.8,40.2,29.91,WNW,284,0.0,0.0,94,0.00,,SCT250,0.97,VWS V14.01,2013-05-11 05:00:00,
2013-05-11 00:02:00,41.7,40.1,29.91,WNW,284,0.0,0.0,94,0.00,,OVC008,0.00,VWS V14.01,2013-05-11 05:02:00,
2013-05-11 00:05:00,41.7,40.1,29.91,WNW,284,0.0,0.0,94,0.00,,SCT250,0.00,VWS V14.01,2013-05-11 05:05:00,
2013-05-11 00:07:00,41.7,40.1,29.91,WNW,284,0.0,0.0,94,0.00,,OVC008,0.00,VWS V14.01,2013-05-11 05:07:00,
2013-05-11 00:10:00,41.6,40.0,29.91,WNW,284,0.0,0.0,94,0.00,,SCT250,0.00,VWS V14.01,2013-05-11 05:10:00,
2013-05-11 00:12:00,41.7,40.4,29.90,WNW,284,0.0,0.0,95,0.00,,OVC008,0.00,VWS V14.01,2013-05-11 05:12:00,
2013-05-11 00:15:00,41.7,40.4,29.90,WNW,284,0.0,0.0,95,0.00,,SCT250,0.00,VWS V14.01,2013-05-11 05:15:00,
2013-05-11 00:17:00,41.7,40.4,29.90,WNW,284,0.0,0.0,95,0.00,,OVC008,0.00,VWS V14.01,2013-05-11 05:17:00,
2013-05-11 00:20:00,41.7,40.4,29.90,WNW,284,0.0,0.0,95,0.00,,SCT250,0.00,VWS V14.01,2013-05-11 05:20:00,
2013-05-11 00:22:00,41.8,40.5,29.90,WNW,284,0.0,0.0,95,0.00,,OVC008,0.00,VWS V14.01,2013-05-11 05:22:00,
2013-05-11 00:25:00,41.8,40.5,29.90,WNW,284,0.0,0.0,95,0.00,,SCT250,0.00,VWS V14.01,2013-05-11 05:25:00,
2013-05-11 00:27:00,41.8,40.5,29.90,WNW,284,0.0,0.0,95,0.00,,OVC008,0.00,VWS V14.01,2013-05-11 05:27:00,
2013-05-11 00:30:00,41.8,40.5,29.90,WNW,284,0.0,0.0,95,0.00,,SCT250,0.00,VWS V14.01,2013-05-11 05:30:00,
2013-05-11 00:32:00,41.9,40.8,29.90,WNW,284,0.0,0.0,96,0.00,,OVC008,0.00,VWS V14.01,2013-05-11 05:32:00,
2013-05-11 00:35:00,41.9,40.8,29.90,WNW,284,0.0,0.0,96,0.00,,SCT250,0.00,VWS V14.01,2013-05-11 05:35:00,
2013-05-11 00:37:00,42.1,41.0,29.90,West,275,0.0,0.0,96,0.00,,OVC008,0.00,VWS V14.01,2013-05-11 05:37:00,
2013-05-11 00:40:00,42.1,41.0,29.90,West,275,0.0,0.0,96,0.00,,SCT250,0.00,VWS V14.01,2013-05-11 05:40:00,
2013-05-11 00:42:00,42.0,40.9,29.90,West,275,0.0,0.0,96,0.00,,OVC008,0.00,VWS V14.01,2013-05-11 05:42:00,
2013-05-11 00:45:00,42.0,40.7,29.90,West,275,0.0,0.0,95,0.00,,SCT250,0.00,VWS V14.01,2013-05-11 05:45:00,
2013-05-11 00:47:00,41.9,40.8,29.90,West,274,0.0,0.0,96,0.00,,OVC008,0.00,VWS V14.01,2013-05-11 05:47:00,
2013-05-11 00:50:00,41.9,40.8,29.90,West,275,0.0,0.0,96,0.00,,SCT250,0.00,VWS V14.01,2013-05-11 05:50:00,
2013-05-11 00:52:00,41.8,40.8,29.90,West,275,0.0,0.0,96,0.00,,OVC008,0.00,VWS V14.01,2013-05-11 05:52:00,
2013-05-11 00:55:00,41.8,40.8,29.90,West,275,0.0,0.0,96,0.00,,SCT250,0.00,VWS V14.01,2013-05-11 05:55:00,
2013-05-11 00:57:00,41.9,40.8,29.89,West,274,0.0,0.0,96,0.00,,OVC008,0.00,VWS V14.01,2013-05-11 05:57:00,
2013-05-11 01:00:00,41.9,40.8,29.90,West,274,0.0,0.0,96,0.00,,SCT250,0.00,VWS V14.01,2013-05-11 06:00:00,
2013-05-11 01:02:00,41.7,40.7,29.90,West,275,0.0,0.0,96,0.00,,BKN006,0.00,VWS V14.01,2013-05-11 06:02:00,
2013-05-11 01:05:00,41.7,40.7,29.90,West,274,0.0,0.0,96,0.00,,SCT250,0.00,VWS V14.01,2013-05-11 06:05:00,
2013-05-11 01:07:00,41.7,40.7,29.90,West,274,0.0,0.0,96,0.00,,BKN006,0.00,VWS V14.01,2013-05-11 06:07:00,
2013-05-11 01:10:00,41.7,40.7,29.89,SW,234,0.0,0.0,96,0.00,,SCT250,0.00,VWS V14.01,2013-05-11 06:10:00,
2013-05-11 01:12:00,41.5,40.5,29.89,SW,231,0.0,0.0,96,0.00,,BKN006,0.00,VWS V14.01,2013-05-11 06:12:00,
2013-05-11 01:15:00,41.4,40.3,29.89,SW,231,0.0,0.0,96,0.00,,SCT250,0.00,VWS V14.01,2013-05-11 06:15:00,
2013-05-11 01:18:00,41.3,40.2,29.89,SW,231,0.0,0.0,96,0.00,,BKN006,0.00,VWS V14.01,2013-05-11 06:18:00,
2013-05-11 01:20:00,41.3,40.2,29.89,SW,231,0.0,0.0,96,0.00,,SCT250,0.00,VWS V14.01,2013-05-11 06:20:00,
2013-05-11 01:23:00,41.2,40.2,29.89,SW,231,0.0,0.0,96,0.00,,BKN006,0.00,VWS V14.01,2013-05-11 06:23:00,
2013-05-11 01:25:00,41.2,40.2,29.89,SW,231,0.0,0.0,96,0.00,,SCT250,0.00,VWS V14.01,2013-05-11 06:25:00,
2013-05-11 01:28:00,41.3,40.2,29.89,SW,231,0.0,0.0,96,0.00,,BKN006,0.00,VWS V14.01,2013-05-11 06:28:00,
2013-05-11 01:30:00,41.3,40.2,29.89,SW,231,0.0,0.0,96,0.00,,SCT250,0.00,VWS V14.01,2013-05-11 06:30:00,
2013-05-11 01:33:00,41.1,40.0,29.89,SW,231,0.0,0.0,96,0.00,,SCT006,0.00,VWS V14.01,2013-05-11 06:33:00,
2013-05-11 01:35:00,41.1,40.0,29.89,SW,231,0.0,0.0,96,0.00,,SCT250,0.00,VWS V14.01,2013-05-11 06:35:00,
2013-05-11 01:38:00,41.0,40.0,29.88,SW,231,0.0,0.0,96,0.00,,SCT006,0.00,VWS V14.01,2013-05-11 06:38:00,
2013-05-11 01:40:00,41.0,40.0,29.88,SW,231,0.0,0.0,96,0.00,,SCT250,0.00,VWS V14.01,2013-05-11 06:40:00,
2013-05-11 01:43:00,41.0,40.0,29.88,SW,231,0.0,0.0,96,0.00,,SCT006,0.00,VWS V14.01,2013-05-11 06:43:00,
2013-05-11 01:45:00,41.0,40.0,29.88,SW,231,0.0,0.0,96,0.00,,SCT250,0.00,VWS V14.01,2013-05-11 06:45:00,
2013-05-11 01:48:00,41.0,40.0,29.88,SW,232,0.0,0.0,96,0.00,,SCT006,0.00,VWS V14.01,2013-05-11 06:48:00,
2013-05-11 01:50:00,41.0,40.0,29.88,SW,231,0.0,0.0,96,0.00,,SCT250,0.00,VWS V14.01,2013-05-11 06:50:00,
2013-05-11 01:53:00,40.9,39.8,29.88,SW,231,0.0,0.0,96,0.00,,SCT006,0.00,VWS V14.01,2013-05-11 06:53:00,
2013-05-11 01:55:00,40.9,39.8,29.88,SW,231,0.0,0.0,96,0.00,,SCT250,0.00,VWS V14.01,2013-05-11 06:55:00,
2013-05-11 01:58:00,40.8,39.8,29.87,SW,231,0.0,0.0,96,0.00,,SCT006,0.00,VWS V14.01,2013-05-11 06:58:00,
2013-05-11 02:00:00,40.8,39.8,29.87,SW,231,0.0,0.0,96,0.00,,FEW070,0.00,VWS V14.01,2013-05-11 07:00:00,
2013-05-11 02:03:00,40.6,39.5,29.87,SW,231,0.0,0.0,96,0.00,,SCT006,0.00,VWS V14.01,2013-05-11 07:03:00,
2013-05-11 02:05:00,40.7,39.7,29.87,SW,231,0.0,0.0,96,0.00,,SCT250,0.00,VWS V14.01,2013-05-11 07:05:00,
2013-05-11 02:08:00,40.6,39.5,29.87,SW,231,0.0,0.0,96,0.00,,SCT006,0.00,VWS V14.01,2013-05-11 07:08:00,
2013-05-11 02:10:00,40.6,39.5,29.87,SW,231,0.0,0.0,96,0.00,,SCT250,0.00,VWS V14.01,2013-05-11 07:10:00,
2013-05-11 02:13:00,40.5,39.5,29.87,SW,231,0.0,0.0,96,0.00,,SCT006,0.00,VWS V14.01,2013-05-11 07:13:00,
2013-05-11 02:15:00,40.5,39.5,29.87,SW,231,0.0,0.0,96,0.00,,SCT250,0.00,VWS V14.01,2013-05-11 07:15:00,
2013-05-11 02:18:00,40.4,39.3,29.86,SW,231,0.0,0.0,96,0.00,,SCT006,0.00,VWS V14.01,2013-05-11 07:18:00,
2013-05-11 02:20:00,40.4,39.3,29.86,SW,232,0.0,0.0,96,0.00,,SCT250,0.00,VWS V14.01,2013-05-11 07:20:00,
2013-05-11 02:23:00,40.2,39.2,29.86,SW,232,0.0,0.0,96,0.00,,SCT006,0.00,VWS V14.01,2013-05-11 07:23:00,
2013-05-11 02:25:00,40.2,39.2,29.86,SW,232,0.0,0.0,96,0.00,,SCT250,0.00,VWS V14.01,2013-05-11 07:25:00,
2013-05-11 02:28:00,40.1,39.0,29.86,WSW,250,0.0,0.0,96,0.00,,SCT006,0.00,VWS V14.01,2013-05-11 07:28:00,
2013-05-11 02:30:00,40.1,39.0,29.86,WSW,250,0.0,0.0,96,0.00,,SCT250,0.00,VWS V14.01,2013-05-11 07:30:00,
2013-05-11 02:33:00,39.9,38.8,29.86,WSW,258,0.0,0.0,96,0.00,,SCT006,0.00,VWS V14.01,2013-05-11 07:33:00,
2013-05-11 02:35:00,39.9,38.8,29.86,WSW,258,0.0,0.0,96,0.00,,SCT250,0.00,VWS V14.01,2013-05-11 07:35:00,
2013-05-11 02:38:00,39.8,38.8,29.86,WSW,258,0.0,0.0,96,0.00,,SCT006,0.00,VWS V14.01,2013-05-11 07:38:00,
2013-05-11 02:40:00,39.8,38.8,29.86,WSW,258,0.0,0.0,96,0.00,,SCT250,0.00,VWS V14.01,2013-05-11 07:40:00,
2013-05-11 02:43:00,39.8,38.8,29.86,WSW,258,0.0,0.0,96,0.00,,SCT006,0.00,VWS V14.01,2013-05-11 07:43:00,
2013-05-11 02:45:00,39.8,38.8,29.86,WSW,258,0.0,0.0,96,0.00,,SCT250,0.00,VWS V14.01,2013-05-11 07:45:00,
2013-05-11 02:48:00,39.7,38.7,29.85,WSW,257,0.0,0.0,96,0.00,,SCT006,0.00,VWS V14.01,2013-05-11 07:48:00,
2013-05-11 02:50:00,39.7,38.7,29.85,WSW,257,0.0,0.0,96,0.00,,SCT250,0.00,VWS V14.01,2013-05-11 07:50:00,
2013-05-11 02:53:00,39.7,38.7,29.85,WSW,257,0.0,0.0,96,0.00,,SCT006,0.00,VWS V14.01,2013-05-11 07:53:00,
2013-05-11 02:55:00,39.7,38.7,29.85,WSW,257,0.0,0.0,96,0.00,,SCT250,0.00,VWS V14.01,2013-05-11 07:55:00,
2013-05-11 02:59:00,39.8,38.8,29.85,WSW,257,0.0,0.0,96,0.00,,SCT006,0.00,VWS V14.01,2013-05-11 07:59:00,
2013-05-11 03:00:00,39.8,38.8,29.85,WSW,257,0.0,0.0,96,0.00,,SCT250,0.00,VWS V14.01,2013-05-11 08:00:00,
2013-05-11 03:04:00,39.8,38.8,29.85,WSW,254,0.0,0.0,96,0.00,,,0.00,VWS V14.01,2013-05-11 08:04:00,
2013-05-11 03:05:00,39.8,38.8,29.85,WSW,254,0.0,0.0,96,0.00,,SCT250,0.00,VWS V14.01,2013-05-11 08:05:00,
2013-05-11 03:09:00,39.9,38.8,29.85,WSW,254,0.0,0.0,96,0.00,,,0.00,VWS V14.01,2013-05-11 08:09:00,
2013-05-11 03:10:00,39.9,38.8,29.85,WSW,254,0.0,0.0,96,0.00,,SCT250,0.00,VWS V14.01,2013-05-11 08:10:00,
2013-05-11 03:14:00,40.1,39.0,29.85,WSW,254,0.0,0.0,96,0.00,,,0.00,VWS V14.01,2013-05-11 08:14:00,
2013-05-11 03:15:00,40.0,39.0,29.85,WSW,254,0.0,0.0,96,0.00,,SCT250,0.00,VWS V14.01,2013-05-11 08:15:00,
2013-05-11 03:19:00,40.1,39.0,29.85,WSW,254,0.0,0.0,96,0.00,,,0.00,VWS V14.01,2013-05-11 08:19:00,
2013-05-11 03:20:00,40.1,39.0,29.85,WSW,254,0.0,0.0,96,0.00,,SCT250,0.00,VWS V14.01,2013-05-11 08:20:00,
2013-05-11 03:24:00,40.2,39.2,29.85,WSW,254,0.0,0.0,96,0.00,,,0.00,VWS V14.01,2013-05-11 08:24:00,
2013-05-11 03:25:00,40.2,39.2,29.85,WSW,254,0.0,0.0,96,0.00,,SCT250,0.00,VWS V14.01,2013-05-11 08:25:00,
2013-05-11 03:29:00,40.2,39.2,29.85,WSW,254,0.0,0.0,96,0.00,,,0.00,VWS V14.01,2013-05-11 08:29:00,
2013-05-11 03:30:00,40.2,39.2,29.85,WSW,254,0.0,0.0,96,0.00,,SCT250,0.00,VWS V14.01,2013-05-11 08:30:00,
2013-05-11 03:34:00,40.2,39.2,29.84,WSW,253,0.0,0.0,96,0.00,,,0.00,VWS V14.01,2013-05-11 08:34:00,
2013-05-11 03:35:00,40.2,39.2,29.84,WSW,254,0.0,0.0,96,0.00,,SCT250,0.00,VWS V14.01,2013-05-11 08:35:00,
2013-05-11 03:39:00,40.2,39.2,29.84,WSW,253,0.0,0.0,96,0.00,,,0.00,VWS V14.01,2013-05-11 08:39:00,
2013-05-11 03:40:00,40.2,39.2,29.84,WSW,253,0.0,0.0,96,0.00,,SCT250,0.00,VWS V14.01,2013-05-11 08:40:00,
2013-05-11 03:44:00,40.2,39.2,29.84,WSW,253,0.0,0.0,96,0.00,,,0.00,VWS V14.01,2013-05-11 08:44:00,
2013-05-11 03:45:00,40.2,39.2,29.84,WSW,253,0.0,0.0,96,0.00,,SCT250,0.00,VWS V14.01,2013-05-11 08:45:00,
2013-05-11 03:49:00,40.1,39.0,29.84,WSW,243,0.0,0.0,96,0.00,,,0.00,VWS V14.01,2013-05-11 08:49:00,
2013-05-11 03:50:00,40.2,39.2,29.84,WSW,243,0.0,0.0,96,0.00,,SCT250,0.00,VWS V14.01,2013-05-11 08:50:00,
2013-05-11 03:55:00,40.0,39.0,29.84,SW,234,0.0,0.0,96,0.00,,,0.00,VWS V14.01,2013-05-11 08:55:00,
2013-05-11 04:00:00,40.1,39.0,29.84,SW,234,0.0,0.0,96,0.00,,,0.00,VWS V14.01,2013-05-11 09:00:00,
2013-05-11 04:05:00,40.1,39.0,29.84,North,360,0.0,0.0,96,0.00,,,0.00,VWS V14.01,2013-05-11 09:05:00,
2013-05-11 04:10:00,40.0,39.0,29.84,North,360,0.0,0.0,96,0.00,,,0.00,VWS V14.01,2013-05-11 09:10:00,
2013-05-11 04:15:00,39.4,38.1,29.83,SSW,207,0.0,0.0,95,0.00,,,0.00,VWS V14.01,2013-05-11 09:15:00,
2013-05-11 04:20:00,39.1,37.8,29.83,SSW,207,0.0,0.0,95,0.00,,,0.00,VWS V14.01,2013-05-11 09:20:00,
2013-05-11 04:25:00,39.1,38.1,29.83,SSW,207,0.0,0.0,96,0.00,,,0.00,VWS V14.01,2013-05-11 09:25:00,
2013-05-11 04:30:00,39.1,38.1,29.83,SSW,207,0.0,0.0,96,0.00,,,0.00,VWS V14.01,2013-05-11 09:30:00,
2013-05-11 04:35:00,39.2,38.2,29.83,SSW,207,0.0,0.0,96,0.00,,,0.00,VWS V14.01,2013-05-11 09:35:00,
2013-05-11 04:40:00,39.3,38.3,29.83,SSW,207,0.0,0.0,96,0.00,,,0.00,VWS V14.01,2013-05-11 09:40:00,
2013-05-11 04:45:00,39.4,38.4,29.83,SSW,207,0.0,0.0,96,0.00,,,0.00,VWS V14.01,2013-05-11 09:45:00,
2013-05-11 04:50:00,39.6,38.6,29.83,SSW,207,0.0,0.0,96,0.00,,,0.00,VWS V14.01,2013-05-11 09:50:00,
2013-05-11 04:55:00,39.7,38.7,29.83,SSW,207,0.0,0.0,96,0.00,,,0.00,VWS V14.01,2013-05-11 09:55:00,
2013-05-11 05:00:00,39.7,38.7,29.83,SSW,207,0.0,0.0,96,0.00,,,0.00,VWS V14.01,2013-05-11 10:00:00,
2013-05-11 05:05:00,39.8,38.8,29.83,SSW,207,0.0,0.0,96,0.00,,SCT250,0.00,VWS V14.01,2013-05-11 10:05:00,
2013-05-11 05:06:00,39.8,38.8,29.83,SSW,207,0.0,0.0,96,0.00,,,0.00,VWS V14.01,2013-05-11 10:06:00,
2013-05-11 05:10:00,40.0,39.0,29.83,SSW,208,0.0,0.0,96,0.00,,SCT250,0.00,VWS V14.01,2013-05-11 10:10:00,
2013-05-11 05:11:00,40.0,39.0,29.83,SSW,207,0.0,0.0,96,0.00,,,0.00,VWS V14.01,2013-05-11 10:11:00,
2013-05-11 05:15:00,40.1,39.0,29.83,SSW,207,0.0,0.0,96,0.00,,SCT250,0.00,VWS V14.01,2013-05-11 10:15:00,
2013-05-11 05:16:00,40.1,39.0,29.83,SSW,207,0.0,0.0,96,0.00,,,0.00,VWS V14.01,2013-05-11 10:16:00,
2013-05-11 05:20:00,40.2,39.2,29.83,SSW,207,0.0,0.0,96,0.00,,SCT250,0.00,VWS V14.01,2013-05-11 10:20:00,
2013-05-11 05:21:00,40.3,39.2,29.82,North,360,0.0,0.0,96,0.00,,,0.00,VWS V14.01,2013-05-11 10:21:00,
2013-05-11 05:25:00,40.4,39.3,29.83,North,360,0.0,0.0,96,0.00,,SCT250,0.00,VWS V14.01,2013-05-11 10:25:00,
2013-05-11 05:26:00,40.5,39.5,29.82,SSW,202,5.0,7.0,96,0.00,,,0.00,VWS V14.01,2013-05-11 10:26:00,
2013-05-11 05:30:00,40.5,39.5,29.82,North,360,1.0,7.0,96,0.00,,SCT250,0.00,VWS V14.01,2013-05-11 10:30:00,
2013-05-11 05:31:00,40.6,39.5,29.82,SSW,206,5.0,7.0,96,0.00,,,0.00,VWS V14.01,2013-05-11 10:31:00,
2013-05-11 05:35:00,40.6,39.5,29.82,SSW,205,6.0,7.0,96,0.00,,SCT250,0.00,VWS V14.01,2013-05-11 10:35:00,
2013-05-11 05:36:00,40.6,39.5,29.82,North,360,2.0,7.0,96,0.00,,,0.00,VWS V14.01,2013-05-11 10:36:00,
2013-05-11 05:40:00,40.7,39.7,29.82,SSW,194,5.0,7.0,96,0.00,,SCT250,0.00,VWS V14.01,2013-05-11 10:40:00,
2013-05-11 05:41:00,40.8,39.8,29.82,North,360,0.0,7.0,96,0.00,,,0.00,VWS V14.01,2013-05-11 10:41:00,
2013-05-11 05:45:00,40.9,39.8,29.82,North,360,0.0,5.0,96,0.00,,SCT250,0.00,VWS V14.01,2013-05-11 10:45:00,
2013-05-11 05:46:00,41.0,41.0,29.82,South,181,0.0,4.0,100,0.00,,,0.00,VWS V14.01,2013-05-11 10:46:00,
2013-05-11 05:50:00,41.0,40.0,29.82,North,360,1.0,5.0,96,0.00,,SCT250,0.00,VWS V14.01,2013-05-11 10:50:00,
2013-05-11 05:51:00,41.1,40.0,29.82,SSW,193,3.0,7.0,96,0.00,,,0.00,VWS V14.01,2013-05-11 10:51:00,
2013-05-11 05:55:00,41.1,40.0,29.82,SSW,194,0.0,7.0,96,0.00,,SCT250,0.00,VWS V14.01,2013-05-11 10:55:00,
2013-05-11 05:56:00,41.3,40.2,29.81,SSW,194,0.0,7.0,96,0.00,,,0.00,VWS V14.01,2013-05-11 10:56:00,
2013-05-11 06:00:00,41.3,40.2,29.82,SSW,194,2.0,6.0,96,0.00,,SCT250,0.00,VWS V14.01,2013-05-11 11:00:00,
2013-05-11 06:01:00,41.3,40.2,29.81,North,360,0.0,7.0,96,0.00,,,0.00,VWS V14.01,2013-05-11 11:01:00,
2013-05-11 06:05:00,41.4,40.3,29.81,North,360,0.0,7.0,96,0.00,,SCT250,0.00,VWS V14.01,2013-05-11 11:05:00,
2013-05-11 06:06:00,41.5,40.5,29.81,SSW,199,5.0,8.0,96,0.00,,,0.00,VWS V14.01,2013-05-11 11:06:00,
2013-05-11 06:10:00,41.5,40.5,29.81,SW,222,1.0,7.0,96,0.00,,SCT250,0.00,VWS V14.01,2013-05-11 11:10:00,
2013-05-11 06:11:00,41.6,40.5,29.81,SSW,213,1.0,9.0,96,0.00,,,0.00,VWS V14.01,2013-05-11 11:11:00,
2013-05-11 06:15:00,41.7,40.9,29.81,North,360,1.0,9.0,97,0.00,,SCT250,0.00,VWS V14.01,2013-05-11 11:15:00,
2013-05-11 06:16:00,41.8,40.8,29.81,SW,230,0.0,8.0,96,0.00,,,0.00,VWS V14.01,2013-05-11 11:16:00,
2013-05-11 06:20:00,41.8,40.8,29.81,SW,217,0.0,7.0,96,0.00,,SCT250,0.00,VWS V14.01,2013-05-11 11:20:00,
2013-05-11 06:22:00,42.0,40.9,29.81,SSW,212,4.0,7.0,96,0.00,,,0.00,VWS V14.01,2013-05-11 11:22:00,
2013-05-11 06:25:00,42.0,40.9,29.81,SSW,205,3.0,6.0,96,0.00,,SCT250,0.00,VWS V14.01,2013-05-11 11:25:00,
2013-05-11 06:27:00,42.1,41.3,29.81,SSW,196,0.0,5.0,97,0.00,,,0.00,VWS V14.01,2013-05-11 11:27:00,
2013-05-11 06:30:00,42.2,41.4,29.81,North,360,0.0,5.0,97,0.00,,SCT250,0.00,VWS V14.01,2013-05-11 11:30:00,
2013-05-11 06:32:00,42.3,41.5,29.80,South,170,0.0,5.0,97,0.00,,,0.00,VWS V14.01,2013-05-11 11:32:00,
2013-05-11 06:35:00,42.4,41.6,29.80,North,360,0.0,2.0,97,0.00,,SCT250,0.00,VWS V14.01,2013-05-11 11:35:00,
2013-05-11 06:37:00,42.6,41.5,29.80,North,360,1.0,6.0,96,0.00,,,0.00,VWS V14.01,2013-05-11 11:37:00,
2013-05-11 06:40:00,42.7,41.6,29.80,North,360,0.0,6.0,96,0.00,,SCT250,0.00,VWS V14.01,2013-05-11 11:40:00,
2013-05-11 06:42:00,42.9,42.1,29.80,North,360,0.0,7.0,97,0.00,,,0.00,VWS V14.01,2013-05-11 11:42:00,
2013-05-11 06:45:00,43.0,42.2,29.80,SSW,192,0.0,7.0,97,0.00,,SCT250,0.00,VWS V14.01,2013-05-11 11:45:00,
2013-05-11 06:47:00,43.2,42.1,29.80,North,360,3.0,7.0,96,0.00,,,0.00,VWS V14.01,2013-05-11 11:47:00,
2013-05-11 06:50:00,43.3,42.2,29.80,North,360,3.0,6.0,96,0.00,,SCT250,0.00,VWS V14.01,2013-05-11 11:50:00,
2013-05-11 06:52:00,43.4,42.6,29.79,North,360,2.0,7.0,97,0.00,,,0.00,VWS V14.01,2013-05-11 11:52:00,
2013-05-11 06:55:00,43.5,42.7,29.79,SW,229,0.0,7.0,97,0.00,,SCT250,0.00,VWS V14.01,2013-05-11 11:55:00,
2013-05-11 06:57:00,43.7,42.9,29.79,WSW,240,2.0,5.0,97,0.00,,,0.00,VWS V14.01,2013-05-11 11:57:00,
2013-05-11 07:00:00,43.8,42.7,29.79,South,178,0.0,5.0,96,0.00,,SCT250,0.00,VWS V14.01,2013-05-11 12:00:00,
2013-05-11 07:02:00,43.9,43.1,29.78,North,360,2.0,5.0,97,0.00,,,0.00,VWS V14.01,2013-05-11 12:02:00,
2013-05-11 07:05:00,44.0,43.2,29.78,North,360,2.0,8.0,97,0.00,,SCT250,0.00,VWS V14.01,2013-05-11 12:05:00,
2013-05-11 07:07:00,44.2,43.1,29.78,SW,231,0.0,9.0,96,0.00,,,0.00,VWS V14.01,2013-05-11 12:07:00,
2013-05-11 07:10:00,44.3,43.2,29.78,North,360,2.0,9.0,96,0.00,,SCT250,0.00,VWS V14.01,2013-05-11 12:10:00,
2013-05-11 07:12:00,44.5,43.4,29.78,North,360,3.0,9.0,96,0.00,,,0.00,VWS V14.01,2013-05-11 12:12:00,
2013-05-11 07:15:00,44.6,43.5,29.78,West,265,3.0,9.0,96,0.00,,SCT250,0.00,VWS V14.01,2013-05-11 12:15:00,
2013-05-11 07:17:00,44.9,43.8,29.78,South,169,4.0,9.0,96,0.00,,,0.00,VWS V14.01,2013-05-11 12:17:00,
2013-05-11 07:20:00,44.9,43.8,29.78,SW,220,1.0,9.0,96,0.00,,SCT250,0.00,VWS V14.01,2013-05-11 12:20:00,
2013-05-11 07:22:00,45.2,44.1,29.78,SSW,208,6.0,11.0,96,0.00,,,0.00,VWS V14.01,2013-05-11 12:22:00,
2013-05-11 07:25:00,45.3,44.2,29.78,SW,217,4.0,11.0,96,0.00,,SCT250,0.00,VWS V14.01,2013-05-11 12:25:00,
2013-05-11 07:27:00,45.5,45.5,29.78,SW,219,7.0,13.0,100,0.00,,,0.00,VWS V14.01,2013-05-11 12:27:00,
2013-05-11 07:30:00,45.6,44.5,29.78,WSW,245,5.0,13.0,96,0.00,,SCT250,0.00,VWS V14.01,2013-05-11 12:30:00,
2013-05-11 07:32:00,45.8,44.7,29.78,North,360,1.0,12.0,96,0.00,,,0.00,VWS V14.01,2013-05-11 12:32:00,
2013-05-11 07:35:00,45.9,44.8,29.78,North,360,0.0,12.0,96,0.00,,SCT250,0.00,VWS V14.01,2013-05-11 12:35:00,
2013-05-11 07:37:00,46.1,45.0,29.78,North,360,4.0,10.0,96,0.00,,,0.00,VWS V14.01,2013-05-11 12:37:00,
2013-05-11 07:40:00,46.1,45.0,29.78,North,360,0.0,10.0,96,0.00,,SCT250,0.00,VWS V14.01,2013-05-11 12:40:00,
2013-05-11 07:43:00,46.3,45.0,29.77,WSW,244,6.0,13.0,95,0.00,,,0.00,VWS V14.01,2013-05-11 12:43:00,
2013-05-11 07:45:00,46.3,45.0,29.77,SW,217,2.0,13.0,95,0.00,,SCT250,0.00,VWS V14.01,2013-05-11 12:45:00,
2013-05-11 07:48:00,46.5,45.2,29.77,North,360,7.0,11.0,95,0.00,,,0.00,VWS V14.01,2013-05-11 12:48:00,
2013-05-11 07:50:00,46.6,45.2,29.77,SSW,213,7.0,11.0,95,0.00,,SCT250,0.00,VWS V14.01,2013-05-11 12:50:00,
2013-05-11 07:53:00,46.7,45.3,29.77,SW,227,8.0,9.0,95,0.00,,,0.00,VWS V14.01,2013-05-11 12:53:00,
2013-05-11 07:55:00,46.8,45.5,29.77,North,360,0.0,9.0,95,0.00,,SCT250,0.00,VWS V14.01,2013-05-11 12:55:00,
2013-05-11 07:58:00,47.0,45.7,29.76,SW,219,0.0,11.0,95,0.00,,,0.00,VWS V14.01,2013-05-11 12:58:00,
2013-05-11 08:00:00,47.0,45.7,29.76,SW,221,7.0,11.0,95,0.00,,SCT250,0.00,VWS V14.01,2013-05-11 13:00:00,
2013-05-11 08:03:00,47.4,46.0,29.76,North,360,8.0,10.0,95,0.00,,,0.00,VWS V14.01,2013-05-11 13:03:00,
2013-05-11 08:05:00,47.4,46.0,29.76,SW,217,4.0,10.0,95,0.00,,SCT250,0.00,VWS V14.01,2013-05-11 13:05:00,
2013-05-11 08:08:00,47.7,46.3,29.76,North,360,5.0,9.0,95,0.00,,,0.00,VWS V14.01,2013-05-11 13:08:00,
2013-05-11 08:10:00,47.7,46.3,29.76,WSW,246,6.0,11.0,95,0.00,,SCT250,0.00,VWS V14.01,2013-05-11 13:10:00,
2013-05-11 08:13:00,48.1,46.7,29.76,North,360,3.0,13.0,95,0.00,,,0.00,VWS V14.01,2013-05-11 13:13:00,
2013-05-11 08:15:00,48.1,46.7,29.76,South,180,3.0,13.0,95,0.00,,SCT250,0.00,VWS V14.01,2013-05-11 13:15:00,
2013-05-11 08:18:00,48.5,46.9,29.75,WSW,244,13.0,13.0,94,0.00,,,0.00,VWS V14.01,2013-05-11 13:18:00,
2013-05-11 08:20:00,48.5,46.9,29.75,North,360,5.0,13.0,94,0.00,,SCT250,0.00,VWS V14.01,2013-05-11 13:20:00,
2013-05-11 08:23:00,48.8,47.2,29.75,SW,216,8.0,14.0,94,0.00,,,0.00,VWS V14.01,2013-05-11 13:23:00,
2013-05-11 08:25:00,48.8,47.2,29.75,North,360,9.0,12.0,94,0.00,,SCT250,0.00,VWS V14.01,2013-05-11 13:25:00,
2013-05-11 08:28:00,49.0,47.1,29.75,North,360,5.0,13.0,93,0.00,,,0.00,VWS V14.01,2013-05-11 13:28:00,
2013-05-11 08:30:00,49.1,47.2,29.75,North,360,12.0,14.0,93,0.00,,SCT250,0.00,VWS V14.01,2013-05-11 13:30:00,
2013-05-11 08:33:00,49.4,47.5,29.75,North,360,1.0,17.0,93,0.00,,,0.00,VWS V14.01,2013-05-11 13:33:00,
2013-05-11 08:35:00,49.5,47.6,29.75,WSW,240,5.0,17.0,93,0.00,,SCT250,0.00,VWS V14.01,2013-05-11 13:35:00,
2013-05-11 08:38:00,50.2,48.3,29.74,SSW,211,7.0,14.0,93,0.00,,,0.00,VWS V14.01,2013-05-11 13:38:00,
2013-05-11 08:40:00,50.3,48.4,29.74,North,360,6.0,14.0,93,0.00,,SCT250,0.00,VWS V14.01,2013-05-11 13:40:00,
2013-05-11 08:43:00,51.0,48.8,29.74,North,360,15.0,15.0,92,0.00,,,0.00,VWS V14.01,2013-05-11 13:43:00,
2013-05-11 08:45:00,51.0,48.8,29.74,North,360,8.0,17.0,92,0.00,,SCT250,0.00,VWS V14.01,2013-05-11 13:45:00,
2013-05-11 08:48:00,51.9,49.4,29.74,North,360,7.0,14.0,91,0.00,,,0.00,VWS V14.01,2013-05-11 13:48:00,
2013-05-11 08:50:00,51.9,49.4,29.74,WSW,246,8.0,14.0,91,0.00,,SCT250,0.00,VWS V14.01,2013-05-11 13:50:00,
2013-05-11 08:53:00,52.6,49.5,29.74,North,360,12.0,16.0,89,0.00,,,0.00,VWS V14.01,2013-05-11 13:53:00,
2013-05-11 08:55:00,52.6,49.5,29.74,North,360,10.0,16.0,89,0.00,,SCT250,0.00,VWS V14.01,2013-05-11 13:55:00,
2013-05-11 08:58:00,53.0,49.5,29.73,North,360,6.0,16.0,88,0.00,,,0.00,VWS V14.01,2013-05-11 13:58:00,
2013-05-11 09:00:00,53.0,49.5,29.73,North,360,6.0,16.0,88,0.00,,SCT250,0.00,VWS V14.01,2013-05-11 14:00:00,
2013-05-11 09:03:00,53.5,49.4,29.72,North,360,5.0,20.0,86,0.00,,,0.00,VWS V14.01,2013-05-11 14:03:00,
2013-05-11 09:05:00,53.5,49.4,29.72,North,360,5.0,20.0,86,0.00,,SCT250,0.00,VWS V14.01,2013-05-11 14:05:00,
2013-05-11 09:08:00,54.1,49.7,29.72,North,360,8.0,16.0,85,0.00,,,0.00,VWS V14.01,2013-05-11 14:08:00,
2013-05-11 09:10:00,54.1,49.7,29.72,North,360,8.0,16.0,85,0.00,,SCT250,0.00,VWS V14.01,2013-05-11 14:10:00,
2013-05-11 09:13:00,54.5,49.8,29.72,North,360,14.0,20.0,84,0.00,,,0.00,VWS V14.01,2013-05-11 14:13:00,
2013-05-11 09:15:00,54.5,49.8,29.72,North,360,14.0,20.0,84,0.00,,SCT250,0.00,VWS V14.01,2013-05-11 14:15:00,
2013-05-11 09:19:00,54.5,49.1,29.72,North,360,12.0,23.0,82,0.00,,,0.00,VWS V14.01,2013-05-11 14:19:00,
2013-05-11 09:20:00,54.5,49.1,29.72,North,360,12.0,23.0,82,0.00,,SCT250,0.00,VWS V14.01,2013-05-11 14:20:00,
2013-05-11 09:23:00,54.2,49.2,29.73,North,360,9.0,19.0,83,0.00,,,0.00,VWS V14.01,2013-05-11 14:23:00,
2013-05-11 09:25:00,54.2,49.2,29.73,North,360,9.0,19.0,83,0.00,,SCT250,0.00,VWS V14.01,2013-05-11 14:25:00,
2013-05-11 09:29:00,54.2,49.2,29.72,North,360,8.0,21.0,83,0.00,,,0.00,VWS V14.01,2013-05-11 14:29:00,
2013-05-11 09:30:00,54.2,49.2,29.72,North,360,8.0,21.0,83,0.00,,SCT250,0.00,VWS V14.01,2013-05-11 14:30:00,
2013-05-11 09:34:00,54.6,49.5,29.72,North,360,18.0,21.0,83,0.00,,,0.00,VWS V14.01,2013-05-11 14:34:00,
2013-05-11 09:35:00,54.5,49.5,29.72,SSW,204,13.0,19.0,83,0.00,,SCT250,0.00,VWS V14.01,2013-05-11 14:35:00,
2013-05-11 09:39:00,54.4,49.3,29.72,SSE,168,6.0,21.0,83,0.00,,,0.00,VWS V14.01,2013-05-11 14:39:00,
2013-05-11 09:40:00,54.5,49.5,29.72,SW,215,9.0,21.0,83,0.00,,SCT250,0.00,VWS V14.01,2013-05-11 14:40:00,
2013-05-11 09:44:00,54.4,49.7,29.72,WSW,248,9.0,15.0,84,0.00,,,0.00,VWS V14.01,2013-05-11 14:44:00,
2013-05-11 09:45:00,54.4,49.7,29.72,North,360,5.0,19.0,84,0.00,,SCT250,0.00,VWS V14.01,2013-05-11 14:45:00,
2013-05-11 09:49:00,54.4,49.7,29.72,SW,234,14.0,19.0,84,0.00,,,0.00,VWS V14.01,2013-05-11 14:49:00,
2013-05-11 09:50:00,54.4,49.7,29.72,West,268,6.0,17.0,84,0.00,,SCT250,0.00,VWS V14.01,2013-05-11 14:50:00,
2013-05-11 09:54:00,53.7,49.3,29.72,North,360,4.0,16.0,85,0.00,,,0.00,VWS V14.01,2013-05-11 14:54:00,
2013-05-11 09:55:00,53.8,49.1,29.72,North,360,7.0,16.0,84,0.00,,SCT250,0.00,VWS V14.01,2013-05-11 14:55:00,
2013-05-11 09:59:00,53.3,49.2,29.72,WSW,242,11.0,14.0,86,0.00,,,0.00,VWS V14.01,2013-05-11 14:59:00,
2013-05-11 10:00:00,53.3,49.2,29.72,SW,219,5.0,11.0,86,0.00,,SCT250,0.00,VWS V14.01,2013-05-11 15:00:00,
2013-05-11 10:04:00,52.9,49.1,29.72,WSW,255,9.0,18.0,87,0.00,,,0.00,VWS V14.01,2013-05-11 15:04:00,
2013-05-11 10:05:00,53.0,49.2,29.72,North,360,8.0,18.0,87,0.00,,SCT250,0.00,VWS V14.01,2013-05-11 15:05:00,
2013-05-11 10:09:00,52.7,49.0,29.72,North,355,9.0,16.0,87,0.00,,,0.00,VWS V14.01,2013-05-11 15:09:00,
2013-05-11 10:10:00,52.7,49.0,29.72,North,360,11.0,15.0,87,0.00,,SCT250,0.00,VWS V14.01,2013-05-11 15:10:00,
2013-05-11 10:14:00,52.5,49.0,29.72,North,360,10.0,18.0,88,0.00,,,0.00,VWS V14.01,2013-05-11 15:14:00,
2013-05-11 10:15:00,52.5,49.1,29.72,SW,229,6.0,19.0,88,0.00,,SCT250,0.00,VWS V14.01,2013-05-11 15:15:00,
2013-05-11 10:19:00,52.4,49.0,29.71,West,263,0.0,16.0,88,0.00,,,0.00,VWS V14.01,2013-05-11 15:19:00,
2013-05-11 10:20:00,52.4,49.0,29.71,North,360,10.0,16.0,88,0.00,,SCT250,0.00,VWS V14.01,2013-05-11 15:20:00,
2013-05-11 10:24:00,52.5,49.0,29.71,North,360,8.0,14.0,88,0.00,,,0.00,VWS V14.01,2013-05-11 15:24:00,
2013-05-11 10:25:00,52.5,49.1,29.71,WSW,238,6.0,11.0,88,0.00,,SCT250,0.00,VWS V14.01,2013-05-11 15:25:00,
2013-05-11 10:30:00,52.6,49.2,29.71,North,360,3.0,14.0,88,0.00,,,0.00,VWS V14.01,2013-05-11 15:30:00,
2013-05-11 10:35:00,52.7,49.2,29.71,WSW,250,5.0,11.0,88,0.00,,,0.00,VWS V14.01,2013-05-11 15:35:00,
2013-05-11 10:40:00,52.7,49.0,29.71,SSW,212,0.0,14.0,87,0.00,,,0.00,VWS V14.01,2013-05-11 15:40:00,
2013-05-11 10:45:00,52.7,49.0,29.71,SW,221,0.0,15.0,87,0.00,,,0.00,VWS V14.01,2013-05-11 15:45:00,
2013-05-11 10:50:00,52.6,49.2,29.72,WNW,286,10.0,16.0,88,0.00,,,0.00,VWS V14.01,2013-05-11 15:50:00,
2013-05-11 10:55:00,50.9,47.2,29.74,North,360,22.0,30.0,87,0.02,,,0.02,VWS V14.01,2013-05-11 15:55:00,
2013-05-11 11:00:00,47.5,43.2,29.74,WNW,288,15.0,34.0,85,0.03,,,0.03,VWS V14.01,2013-05-11 16:00:00,
2013-05-11 11:05:00,46.0,41.8,29.76,NNW,331,23.0,32.0,85,0.03,,,0.03,VWS V14.01,2013-05-11 16:05:00,
2013-05-11 11:10:00,45.3,41.7,29.76,WNW,301,17.0,25.0,87,0.03,,,0.03,VWS V14.01,2013-05-11 16:10:00,
2013-05-11 11:15:00,45.1,41.5,29.76,WNW,295,19.0,32.0,87,0.03,,,0.03,VWS V14.01,2013-05-11 16:15:00,
2013-05-11 11:20:00,44.7,41.1,29.76,WNW,284,14.0,31.0,87,0.04,,,0.04,VWS V14.01,2013-05-11 16:20:00,
2013-05-11 11:25:00,44.6,41.0,29.77,WNW,292,17.0,32.0,87,0.04,,,0.04,VWS V14.01,2013-05-11 16:25:00,
2013-05-11 11:30:00,44.2,40.6,29.77,WNW,290,13.0,27.0,87,0.04,,,0.04,VWS V14.01,2013-05-11 16:30:00,
2013-05-11 11:35:00,44.0,40.1,29.77,NW,317,20.0,30.0,86,0.04,,,0.04,VWS V14.01,2013-05-11 16:35:00,
2013-05-11 11:40:00,43.9,39.7,29.77,NNW,341,10.0,30.0,85,0.04,,SCT250,0.04,VWS V14.01,2013-05-11 16:40:00,
2013-05-11 11:41:00,43.9,40.0,29.78,NW,306,18.0,28.0,86,0.04,,,0.04,VWS V14.01,2013-05-11 16:41:00,
2013-05-11 11:45:00,44.0,40.1,29.78,NW,308,14.0,28.0,86,0.04,,SCT250,0.04,VWS V14.01,2013-05-11 16:45:00,
2013-05-11 11:46:00,44.1,39.9,29.78,NW,321,12.0,29.0,85,0.04,,,0.04,VWS V14.01,2013-05-11 16:46:00,
2013-05-11 11:50:00,44.4,40.2,29.78,NW,319,17.0,29.0,85,0.04,,FEW250,0.04,VWS V14.01,2013-05-11 16:50:00,
2013-05-11 11:51:00,44.5,40.0,29.78,NW,304,13.0,26.0,84,0.04,,,0.04,VWS V14.01,2013-05-11 16:51:00,
2013-05-11 11:55:00,44.6,39.5,29.78,WNW,302,23.0,25.0,82,0.04,,SCT250,0.04,VWS V14.01,2013-05-11 16:55:00,
2013-05-11 11:56:00,44.6,39.5,29.79,WNW,286,21.0,28.0,82,0.03,,,0.04,VWS V14.01,2013-05-11 16:56:00,
2013-05-11 12:00:00,44.7,39.2,29.79,NNW,333,9.0,26.0,81,0.03,,SCT250,0.04,VWS V14.01,2013-05-11 17:00:00,
2013-05-11 12:01:00,45.1,39.9,29.79,WNW,286,14.0,26.0,82,0.01,,OVC070,0.04,VWS V14.01,2013-05-11 17:01:00,
2013-05-11 12:05:00,45.4,39.9,29.79,NW,309,18.0,25.0,81,0.01,,SCT250,0.04,VWS V14.01,2013-05-11 17:05:00,
2013-05-11 12:06:00,45.7,39.9,29.79,NNW,339,17.0,29.0,80,0.01,,OVC070,0.04,VWS V14.01,2013-05-11 17:06:00,
2013-05-11 12:10:00,46.0,39.9,29.79,WNW,301,17.0,29.0,79,0.01,,SCT250,0.04,VWS V14.01,2013-05-11 17:10:00,
2013-05-11 12:11:00,46.4,39.9,29.80,North,355,15.0,28.0,78,0.01,,OVC070,0.04,VWS V14.01,2013-05-11 17:11:00,
2013-05-11 12:15:00,46.5,40.0,29.80,NW,309,5.0,30.0,78,0.01,,SCT250,0.04,VWS V14.01,2013-05-11 17:15:00,
2013-05-11 12:16:00,46.7,39.9,29.80,NW,326,23.0,23.0,77,0.01,,OVC070,0.04,VWS V14.01,2013-05-11 17:16:00,
2013-05-11 12:20:00,46.6,39.1,29.80,NNW,342,20.0,26.0,75,0.01,,SCT250,0.04,VWS V14.01,2013-05-11 17:20:00,
2013-05-11 12:21:00,46.6,39.5,29.80,WNW,302,12.0,27.0,76,0.00,,OVC070,0.04,VWS V14.01,2013-05-11 17:21:00,
2013-05-11 12:25:00,47.1,39.9,29.80,WNW,295,12.0,26.0,76,0.00,,SCT250,0.04,VWS V14.01,2013-05-11 17:25:00,
2013-05-11 12:26:00,47.6,39.7,29.80,WNW,296,14.0,24.0,74,0.00,,OVC070,0.04,VWS V14.01,2013-05-11 17:26:00,
2013-05-11 12:30:00,47.6,39.4,29.80,NW,318,11.0,26.0,73,0.00,,SCT250,0.04,VWS V14.01,2013-05-11 17:30:00,
2013-05-11 12:31:00,47.7,39.5,29.80,NW,311,14.0,23.0,73,0.00,,OVC070,0.04,VWS V14.01,2013-05-11 17:31:00,
2013-05-11 12:35:00,47.9,39.7,29.80,NW,312,16.0,23.0,73,0.00,,SCT250,0.04,VWS V14.01,2013-05-11 17:35:00,
2013-05-11 12:36:00,48.3,39.3,29.80,NW,318,20.0,24.0,71,0.00,,OVC070,0.04,VWS V14.01,2013-05-11 17:36:00,
2013-05-11 12:40:00,48.6,39.6,29.81,NW,304,12.0,24.0,71,0.00,,SCT250,0.04,VWS V14.01,2013-05-11 17:40:00,
2013-05-11 12:42:00,49.3,39.6,29.81,NW,306,20.0,24.0,69,0.00,,OVC070,0.04,VWS V14.01,2013-05-11 17:42:00,
2013-05-11 12:45:00,49.2,39.5,29.81,NW,315,13.0,24.0,69,0.00,,SCT250,0.04,VWS V14.01,2013-05-11 17:45:00,
2013-05-11 12:47:00,48.6,38.5,29.81,North,11,8.0,29.0,68,0.00,,OVC070,0.04,VWS V14.01,2013-05-11 17:47:00,
2013-05-11 12:50:00,48.6,39.3,29.81,WNW,302,16.0,29.0,70,0.00,,SCT250,0.04,VWS V14.01,2013-05-11 17:50:00,
2013-05-11 12:52:00,48.9,39.6,29.81,WNW,286,1.0,23.0,70,0.00,,OVC070,0.04,VWS V14.01,2013-05-11 17:52:00,
2013-05-11 12:55:00,49.5,40.1,29.81,WNW,303,10.0,20.0,70,0.00,,SCT250,0.04,VWS V14.01,2013-05-11 17:55:00,
2013-05-11 12:57:00,49.3,38.8,29.81,WNW,287,9.0,25.0,67,0.00,,OVC070,0.04,VWS V14.01,2013-05-11 17:57:00,
2013-05-11 13:00:00,49.1,38.6,29.81,NNW,331,8.0,23.0,67,0.00,,SCT250,0.04,VWS V14.01,2013-05-11 18:00:00,
2013-05-11 13:02:00,49.2,39.1,29.81,WNW,300,13.0,23.0,68,0.00,,BKN031,0.04,VWS V14.01,2013-05-11 18:02:00,
2013-05-11 13:05:00,49.2,39.1,29.81,West,271,14.0,21.0,68,0.00,,SCT250,0.04,VWS V14.01,2013-05-11 18:05:00,
2013-05-11 13:07:00,49.0,39.3,29.81,WNW,302,5.0,19.0,69,0.00,,BKN031,0.04,VWS V14.01,2013-05-11 18:07:00,
2013-05-11 13:10:00,49.1,39.4,29.82,West,271,12.0,21.0,69,0.00,,SCT250,0.04,VWS V14.01,2013-05-11 18:10:00,
2013-05-11 13:12:00,49.5,39.4,29.82,NW,320,15.0,21.0,68,0.00,,BKN031,0.04,VWS V14.01,2013-05-11 18:12:00,
2013-05-11 13:15:00,49.4,38.9,29.82,WNW,296,19.0,22.0,67,0.00,,SCT250,0.04,VWS V14.01,2013-05-11 18:15:00,
2013-05-11 13:17:00,49.2,38.3,29.82,NNW,346,16.0,22.0,66,0.00,,BKN031,0.04,VWS V14.01,2013-05-11 18:17:00,
2013-05-11 13:20:00,49.0,37.8,29.82,NW,316,8.0,22.0,65,0.00,,SCT250,0.04,VWS V14.01,2013-05-11 18:20:00,
2013-05-11 13:22:00,48.7,37.5,29.82,NW,304,16.0,27.0,65,0.00,,BKN031,0.04,VWS V14.01,2013-05-11 18:22:00,
2013-05-11 13:25:00,48.8,38.0,29.82,NNW,329,11.0,27.0,66,0.00,,SCT250,0.04,VWS V14.01,2013-05-11 18:25:00,
2013-05-11 13:27:00,49.5,38.2,29.82,NW,308,13.0,26.0,65,0.00,,BKN031,0.04,VWS V14.01,2013-05-11 18:27:00,
2013-05-11 13:30:00,49.5,37.4,29.83,West,277,11.0,26.0,63,0.00,,SCT250,0.04,VWS V14.01,2013-05-11 18:30:00,
2013-05-11 13:32:00,49.8,37.3,29.82,West,274,17.0,23.0,62,0.00,,BKN031,0.04,VWS V14.01,2013-05-11 18:32:00,
2013-05-11 13:35:00,49.8,36.9,29.83,NW,307,11.0,31.0,61,0.00,,SCT250,0.04,VWS V14.01,2013-05-11 18:35:00,
2013-05-11 13:37:00,50.5,37.2,29.83,WNW,294,15.0,30.0,60,0.00,,BKN031,0.04,VWS V14.01,2013-05-11 18:37:00,
2013-05-11 13:40:00,50.8,37.0,29.83,West,259,18.0,30.0,59,0.00,,SCT250,0.04,VWS V14.01,2013-05-11 18:40:00,
2013-05-11 13:42:00,50.6,36.4,29.83,West,263,20.0,25.0,58,0.00,,BKN031,0.04,VWS V14.01,2013-05-11 18:42:00,
2013-05-11 13:45:00,50.5,36.3,29.83,West,265,15.0,25.0,58,0.00,,SCT250,0.04,VWS V14.01,2013-05-11 18:45:00,
2013-05-11 13:47:00,51.1,36.0,29.83,West,277,17.0,23.0,56,0.00,,BKN031,0.04,VWS V14.01,2013-05-11 18:47:00,
2013-05-11 13:50:00,51.0,35.0,29.83,West,276,14.0,23.0,54,0.00,,SCT250,0.04,VWS V14.01,2013-05-11 18:50:00,
2013-05-11 13:53:00,51.0,34.5,29.83,West,271,12.0,24.0,53,0.00,,BKN031,0.04,VWS V14.01,2013-05-11 18:53:00,
2013-05-11 13:55:00,50.8,33.8,29.83,WNW,282,18.0,26.0,52,0.00,,SCT250,0.04,VWS V14.01,2013-05-11 18:55:00,
2013-05-11 13:58:00,50.1,32.2,29.83,WNW,293,15.0,35.0,50,0.00,,BKN031,0.04,VWS V14.01,2013-05-11 18:58:00,
2013-05-11 14:00:00,50.1,33.2,29.83,North,5,7.0,35.0,52,0.00,,SCT250,0.04,VWS V14.01,2013-05-11 19:00:00,
2013-05-11 14:03:00,50.9,34.4,29.84,West,281,17.0,22.0,53,0.00,,BKN048,0.04,VWS V14.01,2013-05-11 19:03:00,
2013-05-11 14:05:00,50.9,33.9,29.84,WNW,286,10.0,22.0,52,0.00,,SCT250,0.04,VWS V14.01,2013-05-11 19:05:00,
2013-05-11 14:08:00,51.2,34.2,29.84,WNW,298,12.0,20.0,52,0.00,,BKN048,0.04,VWS V14.01,2013-05-11 19:08:00,
2013-05-11 14:10:00,51.3,34.8,29.84,WNW,296,15.0,20.0,53,0.00,,SCT250,0.04,VWS V14.01,2013-05-11 19:10:00,
2013-05-11 14:13:00,51.5,35.0,29.83,NW,308,14.0,20.0,53,0.00,,BKN048,0.04,VWS V14.01,2013-05-11 19:13:00,
2013-05-11 14:15:00,51.4,33.9,29.83,NW,304,9.0,20.0,51,0.00,,SCT250,0.04,VWS V14.01,2013-05-11 19:15:00,
2013-05-11 14:18:00,51.0,33.5,29.84,WNW,288,18.0,24.0,51,0.00,,BKN048,0.04,VWS V14.01,2013-05-11 19:18:00,
2013-05-11 14:20:00,50.9,33.4,29.84,North,360,16.0,24.0,51,0.00,,SCT250,0.04,VWS V14.01,2013-05-11 19:20:00,
2013-05-11 14:23:00,50.8,33.3,29.84,North,360,13.0,21.0,51,0.00,,BKN048,0.04,VWS V14.01,2013-05-11 19:23:00,
2013-05-11 14:25:00,50.7,33.2,29.84,West,264,17.0,25.0,51,0.00,,SCT250,0.04,VWS V14.01,2013-05-11 19:25:00,
2013-05-11 14:28:00,50.2,32.8,29.84,WNW,293,17.0,24.0,51,0.00,,BKN048,0.04,VWS V14.01,2013-05-11 19:28:00,
2013-05-11 14:30:00,50.1,32.7,29.84,WNW,301,4.0,24.0,51,0.00,,SCT250,0.04,VWS V14.01,2013-05-11 19:30:00,
2013-05-11 14:33:00,51.0,35.0,29.84,NNW,336,14.0,23.0,54,0.00,,BKN048,0.04,VWS V14.01,2013-05-11 19:33:00,
2013-05-11 14:35:00,51.1,34.1,29.84,WNW,302,12.0,23.0,52,0.00,,SCT250,0.04,VWS V14.01,2013-05-11 19:35:00,
2013-05-11 14:38:00,51.3,33.8,29.85,NW,326,9.0,20.0,51,0.00,,BKN048,0.04,VWS V14.01,2013-05-11 19:38:00,
2013-05-11 14:40:00,51.4,33.9,29.85,West,277,14.0,20.0,51,0.00,,SCT250,0.04,VWS V14.01,2013-05-11 19:40:00,
2013-05-11 14:43:00,51.2,32.7,29.84,West,277,14.0,21.0,49,0.00,,BKN048,0.04,VWS V14.01,2013-05-11 19:43:00,
2013-05-11 14:45:00,51.2,32.7,29.84,WNW,290,13.0,21.0,49,0.00,,SCT250,0.04,VWS V14.01,2013-05-11 19:45:00,
2013-05-11 14:48:00,51.5,32.0,29.84,NW,323,17.0,23.0,47,0.00,,BKN048,0.04,VWS V14.01,2013-05-11 19:48:00,
2013-05-11 14:50:00,51.5,32.0,29.84,NW,306,15.0,23.0,47,0.00,,SCT250,0.04,VWS V14.01,2013-05-11 19:50:00,
2013-05-11 14:53:00,51.3,31.8,29.85,NW,309,14.0,26.0,47,0.00,,BKN048,0.04,VWS V14.01,2013-05-11 19:53:00,
2013-05-11 14:55:00,51.4,31.9,29.85,NW,307,15.0,26.0,47,0.00,,SCT250,0.04,VWS V14.01,2013-05-11 19:55:00,
2013-05-11 14:58:00,52.1,33.0,29.85,NNW,331,9.0,18.0,48,0.00,,BKN048,0.04,VWS V14.01,2013-05-11 19:58:00,
2013-05-11 15:00:00,52.1,33.0,29.85,WNW,302,10.0,18.0,48,0.00,,SCT250,0.04,VWS V14.01,2013-05-11 20:00:00,
2013-05-11 15:03:00,51.4,30.2,29.84,West,272,13.0,26.0,44,0.00,,SCT060,0.04,VWS V14.01,2013-05-11 20:03:00,
2013-05-11 15:05:00,51.4,30.2,29.84,West,272,13.0,26.0,44,0.00,,SCT250,0.04,VWS V14.01,2013-05-11 20:05:00,
2013-05-11 15:09:00,50.7,29.6,29.85,WNW,297,13.0,24.0,44,0.00,,SCT060,0.04,VWS V14.01,2013-05-11 20:09:00,
2013-05-11 15:10:00,50.7,29.6,29.85,WNW,297,13.0,24.0,44,0.00,,SCT250,0.04,VWS V14.01,2013-05-11 20:10:00,
2013-05-11 15:13:00,50.6,30.1,29.85,West,267,15.0,24.0,45,0.00,,SCT060,0.04,VWS V14.01,2013-05-11 20:13:00,
2013-05-11 15:15:00,50.6,30.1,29.85,West,267,15.0,24.0,45,0.00,,SCT250,0.04,VWS V14.01,2013-05-11 20:15:00,
2013-05-11 15:18:00,50.6,31.6,29.85,WNW,297,13.0,18.0,48,0.00,,SCT060,0.04,VWS V14.01,2013-05-11 20:18:00,
2013-05-11 15:20:00,50.6,31.6,29.85,WNW,297,13.0,18.0,48,0.00,,SCT250,0.04,VWS V14.01,2013-05-11 20:20:00,
2013-05-11 15:23:00,51.3,30.7,29.84,NNW,327,9.0,18.0,45,0.00,,SCT060,0.04,VWS V14.01,2013-05-11 20:23:00,
2013-05-11 15:25:00,51.3,30.7,29.84,NNW,327,9.0,18.0,45,0.00,,FEW250,0.04,VWS V14.01,2013-05-11 20:25:00,
2013-05-11 15:28:00,51.4,30.8,29.84,WNW,283,10.0,20.0,45,0.00,,SCT060,0.04,VWS V14.01,2013-05-11 20:28:00,
2013-05-11 15:30:00,51.4,30.8,29.84,WNW,283,10.0,20.0,45,0.00,,SCT250,0.04,VWS V14.01,2013-05-11 20:30:00,
2013-05-11 15:33:00,51.1,30.5,29.84,NW,310,8.0,15.0,45,0.00,,SCT060,0.04,VWS V14.01,2013-05-11 20:33:00,
2013-05-11 15:35:00,51.1,30.5,29.84,NW,310,8.0,15.0,45,0.00,,SCT250,0.04,VWS V14.01,2013-05-11 20:35:00,
2013-05-11 15:39:00,51.3,30.1,29.84,West,273,16.0,18.0,44,0.00,,SCT060,0.04,VWS V14.01,2013-05-11 20:39:00,
2013-05-11 15:40:00,51.3,30.1,29.84,West,273,16.0,18.0,44,0.00,,SCT250,0.04,VWS V14.01,2013-05-11 20:40:00,
2013-05-11 15:44:00,51.4,29.7,29.85,NW,322,7.0,19.0,43,0.00,,SCT060,0.04,VWS V14.01,2013-05-11 20:44:00,
2013-05-11 15:45:00,51.4,29.7,29.85,NW,322,7.0,19.0,43,0.00,,SCT250,0.04,VWS V14.01,2013-05-11 20:45:00,
2013-05-11 15:49:00,50.9,30.3,29.85,NW,312,9.0,17.0,45,0.00,,SCT060,0.04,VWS V14.01,2013-05-11 20:49:00,
2013-05-11 15:50:00,50.9,30.3,29.85,NW,312,9.0,17.0,45,0.00,,SCT250,0.04,VWS V14.01,2013-05-11 20:50:00,
2013-05-11 15:54:00,50.6,30.1,29.85,WNW,287,12.0,20.0,45,0.00,,SCT060,0.04,VWS V14.01,2013-05-11 20:54:00,
2013-05-11 15:55:00,50.6,30.1,29.85,NW,311,17.0,20.0,45,0.00,,SCT250,0.04,VWS V14.01,2013-05-11 20:55:00,
2013-05-11 15:59:00,50.7,31.7,29.85,WNW,298,19.0,19.0,48,0.00,,SCT060,0.04,VWS V14.01,2013-05-11 20:59:00,
2013-05-11 16:00:00,50.7,31.7,29.85,West,277,8.0,20.0,48,0.00,,SCT250,0.04,VWS V14.01,2013-05-11 21:00:00,
2013-05-11 16:04:00,50.7,30.7,29.85,WNW,292,9.0,20.0,46,0.00,,BKN090,0.04,VWS V14.01,2013-05-11 21:04:00,
2013-05-11 16:05:00,50.8,30.8,29.85,NW,314,15.0,20.0,46,0.00,,SCT250,0.04,VWS V14.01,2013-05-11 21:05:00,
2013-05-11 16:09:00,51.0,32.0,29.86,NNW,327,18.0,26.0,48,0.00,,BKN090,0.04,VWS V14.01,2013-05-11 21:09:00,
2013-05-11 16:10:00,50.8,31.8,29.86,NW,315,9.0,26.0,48,0.00,,SCT250,0.04,VWS V14.01,2013-05-11 21:10:00,
2013-05-11 16:14:00,51.1,31.1,29.86,WNW,282,7.0,27.0,46,0.00,,BKN090,0.04,VWS V14.01,2013-05-11 21:14:00,
2013-05-11 16:15:00,51.1,31.6,29.86,NW,307,13.0,27.0,47,0.00,,SCT250,0.04,VWS V14.01,2013-05-11 21:15:00,
2013-05-11 16:19:00,51.0,31.5,29.86,WSW,256,17.0,19.0,47,0.00,,BKN090,0.04,VWS V14.01,2013-05-11 21:19:00,
2013-05-11 16:20:00,51.2,31.1,29.86,WNW,286,15.0,19.0,46,0.00,,SCT250,0.04,VWS V14.01,2013-05-11 21:20:00,
2013-05-11 16:25:00,50.4,30.4,29.86,WNW,288,24.0,25.0,46,0.00,,BKN090,0.04,VWS V14.01,2013-05-11 21:25:00,
2013-05-11 16:30:00,50.6,31.1,29.86,West,275,13.0,24.0,47,0.00,,BKN090,0.04,VWS V14.01,2013-05-11 21:30:00,
2013-05-11 16:35:00,51.2,30.6,29.86,WNW,294,12.0,19.0,45,0.00,,BKN090,0.04,VWS V14.01,2013-05-11 21:35:00,
2013-05-11 16:40:00,50.5,32.1,29.87,NNW,348,8.0,26.0,49,0.00,,BKN090,0.04,VWS V14.01,2013-05-11 21:40:00,
2013-05-11 16:45:00,49.0,31.2,29.87,SW,231,10.0,27.0,50,0.00,,BKN090,0.04,VWS V14.01,2013-05-11 21:45:00,
2013-05-11 16:50:00,49.9,31.0,29.87,NW,317,11.0,17.0,48,0.00,,BKN090,0.04,VWS V14.01,2013-05-11 21:50:00,
2013-05-11 16:55:00,50.0,32.1,29.87,WNW,302,16.0,22.0,50,0.00,,BKN090,0.04,VWS V14.01,2013-05-11 21:55:00,
2013-05-11 17:00:00,50.0,31.1,29.87,NW,321,7.0,19.0,48,0.00,,BKN090,0.04,VWS V14.01,2013-05-11 22:00:00,
2013-05-11 17:05:00,50.1,30.1,29.87,NW,305,6.0,21.0,46,0.00,,BKN095,0.04,VWS V14.01,2013-05-11 22:05:00,
2013-05-11 17:10:00,49.9,30.5,29.87,WNW,296,10.0,18.0,47,0.00,,BKN095,0.04,VWS V14.01,2013-05-11 22:10:00,
2013-05-11 17:15:00,49.4,30.0,29.88,North,5,8.0,19.0,47,0.00,,BKN095,0.04,VWS V14.01,2013-05-11 22:15:00,
2013-05-11 17:20:00,49.1,30.3,29.88,West,273,14.0,16.0,48,0.00,,BKN095,0.04,VWS V14.01,2013-05-11 22:20:00,
2013-05-11 17:25:00,49.1,31.3,29.88,NNW,327,7.0,15.0,50,0.00,,BKN095,0.04,VWS V14.01,2013-05-11 22:25:00,
2013-05-11 17:30:00,49.4,31.1,29.88,WNW,288,10.0,19.0,49,0.00,,BKN095,0.04,VWS V14.01,2013-05-11 22:30:00,
2013-05-11 17:35:00,49.6,31.7,29.89,WNW,286,7.0,15.0,50,0.00,,BKN095,0.04,VWS V14.01,2013-05-11 22:35:00,
2013-05-11 17:40:00,49.6,31.7,29.89,NNE,28,10.0,24.0,50,0.00,,BKN095,0.04,VWS V14.01,2013-05-11 22:40:00,
2013-05-11 17:45:00,48.9,32.1,29.89,NW,311,16.0,24.0,52,0.00,,SCT250,0.04,VWS V14.01,2013-05-11 22:45:00,
2013-05-11 17:46:00,48.3,32.0,29.89,NW,308,13.0,19.0,53,0.00,,BKN095,0.04,VWS V14.01,2013-05-11 22:46:00,
2013-05-11 17:50:00,48.3,32.4,29.89,West,274,6.0,16.0,54,0.00,,SCT250,0.04,VWS V14.01,2013-05-11 22:50:00,
2013-05-11 17:51:00,48.6,32.3,29.88,NW,307,11.0,16.0,53,0.00,,BKN095,0.04,VWS V14.01,2013-05-11 22:51:00,
2013-05-11 17:55:00,48.7,31.4,29.89,WNW,284,11.0,15.0,51,0.00,,SCT250,0.04,VWS V14.01,2013-05-11 22:55:00,
2013-05-11 17:56:00,48.8,32.0,29.89,WNW,288,10.0,15.0,52,0.00,,BKN095,0.04,VWS V14.01,2013-05-11 22:56:00,
2013-05-11 18:00:00,48.8,32.9,29.90,NW,304,16.0,16.0,54,0.00,,SCT250,0.04,VWS V14.01,2013-05-11 23:00:00,
2013-05-11 18:01:00,48.9,32.5,29.89,West,273,6.0,16.0,53,0.00,,BKN090,0.04,VWS V14.01,2013-05-11 23:01:00,
2013-05-11 18:05:00,49.1,33.2,29.89,West,267,5.0,13.0,54,0.00,,SCT250,0.04,VWS V14.01,2013-05-11 23:05:00,
2013-05-11 18:06:00,49.3,32.4,29.89,WNW,292,9.0,13.0,52,0.00,,BKN090,0.04,VWS V14.01,2013-05-11 23:06:00,
2013-05-11 18:10:00,49.4,32.0,29.89,West,267,3.0,13.0,51,0.00,,SCT250,0.04,VWS V14.01,2013-05-11 23:10:00,
2013-05-11 18:11:00,49.7,32.3,29.89,WNW,296,8.0,13.0,51,0.00,,BKN090,0.04,VWS V14.01,2013-05-11 23:11:00,
2013-05-11 18:15:00,49.8,31.9,29.88,West,277,3.0,13.0,50,0.00,,SCT250,0.04,VWS V14.01,2013-05-11 23:15:00,
2013-05-11 18:16:00,49.9,32.0,29.88,WNW,295,9.0,13.0,50,0.00,,BKN090,0.04,VWS V14.01,2013-05-11 23:16:00,
2013-05-11 18:20:00,49.7,31.3,29.89,WNW,292,14.0,16.0,49,0.00,,SCT250,0.04,VWS V14.01,2013-05-11 23:20:00,
2013-05-11 18:21:00,49.5,29.6,29.89,NNW,348,8.0,20.0,46,0.00,,BKN090,0.04,VWS V14.01,2013-05-11 23:21:00,
2013-05-11 18:25:00,49.5,30.1,29.89,North,360,8.0,19.0,47,0.00,,SCT250,0.04,VWS V14.01,2013-05-11 23:25:00,
2013-05-11 18:26:00,49.4,29.0,29.89,West,273,6.0,20.0,45,0.00,,BKN090,0.04,VWS V14.01,2013-05-11 23:26:00,
2013-05-11 18:30:00,49.3,28.9,29.89,WNW,284,12.0,20.0,45,0.00,,SCT250,0.04,VWS V14.01,2013-05-11 23:30:00,
2013-05-11 18:31:00,49.4,28.4,29.89,North,355,11.0,21.0,44,0.00,,BKN090,0.04,VWS V14.01,2013-05-11 23:31:00,
2013-05-11 18:35:00,49.5,29.1,29.89,NW,307,9.0,21.0,45,0.00,,SCT250,0.04,VWS V14.01,2013-05-11 23:35:00,
2013-05-11 18:36:00,49.8,29.3,29.89,West,265,12.0,18.0,45,0.00,,BKN090,0.04,VWS V14.01,2013-05-11 23:36:00,
2013-05-11 18:40:00,49.9,29.4,29.89,WNW,296,13.0,18.0,45,0.00,,SCT250,0.04,VWS V14.01,2013-05-11 23:40:00,
2013-05-11 18:41:00,49.9,30.0,29.89,NW,316,6.0,16.0,46,0.00,,BKN090,0.04,VWS V14.01,2013-05-11 23:41:00,
2013-05-11 18:45:00,49.9,29.4,29.89,WNW,298,9.0,13.0,45,0.00,,SCT250,0.04,VWS V14.01,2013-05-11 23:45:00,
2013-05-11 18:46:00,49.9,28.9,29.89,NW,313,12.0,19.0,44,0.00,,BKN090,0.04,VWS V14.01,2013-05-11 23:46:00,
2013-05-11 18:50:00,49.8,29.3,29.89,West,280,11.0,19.0,45,0.00,,SCT250,0.04,VWS V14.01,2013-05-11 23:50:00,
2013-05-11 18:51:00,49.7,28.7,29.89,WNW,283,10.0,15.0,44,0.00,,BKN090,0.04,VWS V14.01,2013-05-11 23:51:00,
2013-05-11 18:55:00,49.7,28.7,29.89,WNW,286,8.0,18.0,44,0.00,,SCT250,0.04,VWS V14.01,2013-05-11 23:55:00,
2013-05-11 18:56:00,49.8,29.3,29.90,NW,324,7.0,13.0,45,0.00,,BKN090,0.04,VWS V14.01,2013-05-11 23:56:00,
2013-05-11 19:00:00,49.8,29.3,29.90,NNW,327,8.0,15.0,45,0.00,,SCT250,0.04,VWS V14.01,2013-05-12 00:00:00,
2013-05-11 19:02:00,49.6,28.0,29.90,NW,325,7.0,21.0,43,0.00,,SCT090,0.04,VWS V14.01,2013-05-12 00:02:00,
2013-05-11 19:05:00,49.5,28.5,29.90,NNW,340,9.0,17.0,44,0.00,,SCT250,0.04,VWS V14.01,2013-05-12 00:05:00,
2013-05-11 19:07:00,49.3,27.8,29.90,NW,315,12.0,19.0,43,0.00,,SCT090,0.04,VWS V14.01,2013-05-12 00:07:00,
2013-05-11 19:10:00,49.3,27.2,29.90,WNW,301,15.0,19.0,42,0.00,,SCT250,0.04,VWS V14.01,2013-05-12 00:10:00,
2013-05-11 19:12:00,49.2,27.7,29.90,NNW,329,7.0,20.0,43,0.00,,SCT090,0.04,VWS V14.01,2013-05-12 00:12:00,
2013-05-11 19:15:00,49.3,28.3,29.90,West,281,8.0,20.0,44,0.00,,SCT250,0.04,VWS V14.01,2013-05-12 00:15:00,
2013-05-11 19:17:00,49.5,26.2,29.90,WSW,254,18.0,20.0,40,0.00,,SCT090,0.04,VWS V14.01,2013-05-12 00:17:00,
2013-05-11 19:20:00,49.5,26.2,29.90,West,265,7.0,20.0,40,0.00,,SCT250,0.04,VWS V14.01,2013-05-12 00:20:00,
2013-05-11 19:22:00,49.5,26.2,29.90,WNW,289,10.0,23.0,40,0.00,,SCT090,0.04,VWS V14.01,2013-05-12 00:22:00,
2013-05-11 19:25:00,49.5,26.2,29.90,WNW,300,12.0,23.0,40,0.00,,SCT250,0.04,VWS V14.01,2013-05-12 00:25:00,
2013-05-11 19:27:00,49.6,26.9,29.90,WNW,301,10.0,16.0,41,0.00,,SCT090,0.04,VWS V14.01,2013-05-12 00:27:00,
2013-05-11 19:30:00,49.5,26.8,29.90,West,279,5.0,17.0,41,0.00,,SCT250,0.04,VWS V14.01,2013-05-12 00:30:00,
2013-05-11 19:32:00,49.3,26.6,29.90,NW,311,13.0,19.0,41,0.00,,SCT090,0.04,VWS V14.01,2013-05-12 00:32:00,
2013-05-11 19:35:00,49.2,26.5,29.90,WNW,288,6.0,19.0,41,0.00,,SCT250,0.04,VWS V14.01,2013-05-12 00:35:00,
2013-05-11 19:37:00,49.1,27.0,29.90,WNW,290,13.0,20.0,42,0.00,,SCT090,0.04,VWS V14.01,2013-05-12 00:37:00,
2013-05-11 19:40:00,49.0,27.5,29.90,West,281,6.0,20.0,43,0.00,,SCT250,0.04,VWS V14.01,2013-05-12 00:40:00,
2013-05-11 19:42:00,48.7,27.8,29.91,West,269,13.0,18.0,44,0.00,,SCT090,0.04,VWS V14.01,2013-05-12 00:42:00,
2013-05-11 19:45:00,48.5,28.1,29.91,West,271,10.0,18.0,45,0.00,,SCT250,0.04,VWS V14.01,2013-05-12 00:45:00,
2013-05-11 19:47:00,48.3,29.0,29.91,West,279,10.0,14.0,47,0.00,,SCT090,0.04,VWS V14.01,2013-05-12 00:47:00,
2013-05-11 19:50:00,48.2,28.9,29.91,WNW,289,11.0,13.0,47,0.00,,FEW250,0.04,VWS V14.01,2013-05-12 00:50:00,
2013-05-11 19:52:00,48.0,28.8,29.91,WNW,290,8.0,16.0,47,0.00,,SCT090,0.04,VWS V14.01,2013-05-12 00:52:00,
2013-05-11 19:55:00,47.9,28.7,29.91,West,268,11.0,18.0,47,0.00,,FEW250,0.04,VWS V14.01,2013-05-12 00:55:00,
2013-05-11 19:57:00,47.8,29.1,29.91,West,267,8.0,17.0,48,0.00,,SCT090,0.04,VWS V14.01,2013-05-12 00:57:00,
2013-05-11 20:00:00,47.8,29.1,29.91,WSW,257,12.0,16.0,48,0.00,,SCT250,0.04,VWS V14.01,2013-05-12 01:00:00,
2013-05-11 20:02:00,47.6,29.9,29.91,West,273,12.0,18.0,50,0.00,,SCT085,0.04,VWS V14.01,2013-05-12 01:02:00,
2013-05-11 20:05:00,47.5,29.8,29.91,WNW,303,8.0,18.0,50,0.00,,SCT250,0.04,VWS V14.01,2013-05-12 01:05:00,
2013-05-11 20:07:00,47.4,30.2,29.91,WSW,256,7.0,16.0,51,0.00,,SCT085,0.04,VWS V14.01,2013-05-12 01:07:00,
2013-05-11 20:10:00,47.3,30.1,29.91,West,270,5.0,15.0,51,0.00,,SCT250,0.04,VWS V14.01,2013-05-12 01:10:00,
2013-05-11 20:12:00,47.2,30.0,29.91,West,273,7.0,17.0,51,0.00,,SCT085,0.04,VWS V14.01,2013-05-12 01:12:00,
2013-05-11 20:15:00,47.2,30.0,29.91,West,281,11.0,16.0,51,0.00,,SCT250,0.04,VWS V14.01,2013-05-12 01:15:00,
2013-05-11 20:18:00,47.0,29.8,29.91,WNW,288,9.0,16.0,51,0.00,,SCT085,0.04,VWS V14.01,2013-05-12 01:18:00,
2013-05-11 20:20:00,47.0,30.3,29.91,WNW,295,9.0,16.0,52,0.00,,SCT250,0.04,VWS V14.01,2013-05-12 01:20:00,
2013-05-11 20:23:00,47.0,30.3,29.91,North,360,8.0,15.0,52,0.00,,SCT085,0.04,VWS V14.01,2013-05-12 01:23:00,
2013-05-11 20:25:00,46.9,30.2,29.91,West,269,15.0,15.0,52,0.00,,SCT250,0.04,VWS V14.01,2013-05-12 01:25:00,
2013-05-11 20:28:00,46.8,30.6,29.91,WSW,256,8.0,15.0,53,0.00,,SCT085,0.04,VWS V14.01,2013-05-12 01:28:00,
2013-05-11 20:30:00,46.8,30.6,29.91,West,272,8.0,12.0,53,0.00,,SCT250,0.04,VWS V14.01,2013-05-12 01:30:00,
2013-05-11 20:33:00,46.7,30.5,29.92,West,273,10.0,15.0,53,0.00,,SCT085,0.04,VWS V14.01,2013-05-12 01:33:00,
2013-05-11 20:35:00,46.7,30.5,29.92,West,279,8.0,15.0,53,0.00,,SCT250,0.04,VWS V14.01,2013-05-12 01:35:00,
2013-05-11 20:38:00,46.5,30.3,29.92,West,271,10.0,15.0,53,0.00,,SCT085,0.04,VWS V14.01,2013-05-12 01:38:00,
2013-05-11 20:40:00,46.4,30.2,29.92,WNW,294,14.0,15.0,53,0.00,,SCT250,0.04,VWS V14.01,2013-05-12 01:40:00,
2013-05-11 20:43:00,46.4,30.2,29.92,West,281,6.0,14.0,53,0.00,,SCT085,0.04,VWS V14.01,2013-05-12 01:43:00,
2013-05-11 20:45:00,46.4,30.2,29.92,West,269,11.0,14.0,53,0.00,,SCT250,0.04,VWS V14.01,2013-05-12 01:45:00,
2013-05-11 20:48:00,46.3,29.6,29.92,West,275,4.0,16.0,52,0.00,,SCT085,0.04,VWS V14.01,2013-05-12 01:48:00,
2013-05-11 20:50:00,46.3,30.1,29.92,NW,305,15.0,16.0,53,0.00,,SCT250,0.04,VWS V14.01,2013-05-12 01:50:00,
2013-05-11 20:53:00,46.2,29.6,29.92,West,261,10.0,15.0,52,0.00,,SCT085,0.04,VWS V14.01,2013-05-12 01:53:00,
2013-05-11 20:55:00,46.1,29.5,29.92,WNW,284,8.0,14.0,52,0.00,,SCT250,0.04,VWS V14.01,2013-05-12 01:55:00,
2013-05-11 20:58:00,46.0,29.4,29.92,WNW,282,10.0,16.0,52,0.00,,SCT085,0.04,VWS V14.01,2013-05-12 01:58:00,
2013-05-11 21:00:00,46.0,29.4,29.92,West,269,9.0,16.0,52,0.00,,SCT250,0.04,VWS V14.01,2013-05-12 02:00:00,
2013-05-11 21:03:00,45.7,29.6,29.92,West,269,11.0,13.0,53,0.00,,SCT070,0.04,VWS V14.01,2013-05-12 02:03:00,
2013-05-11 21:05:00,45.7,29.6,29.92,West,260,9.0,14.0,53,0.00,,SCT250,0.04,VWS V14.01,2013-05-12 02:05:00,
2013-05-11 21:08:00,45.6,29.9,29.92,WNW,288,10.0,15.0,54,0.00,,SCT070,0.04,VWS V14.01,2013-05-12 02:08:00,
2013-05-11 21:10:00,45.5,29.8,29.92,West,269,13.0,15.0,54,0.00,,SCT250,0.04,VWS V14.01,2013-05-12 02:10:00,
2013-05-11 21:13:00,45.4,30.2,29.93,North,360,13.0,15.0,55,0.00,,SCT070,0.04,VWS V14.01,2013-05-12 02:13:00,
2013-05-11 21:15:00,45.4,30.2,29.93,West,259,13.0,15.0,55,0.00,,SCT250,0.04,VWS V14.01,2013-05-12 02:15:00,
2013-05-11 21:18:00,45.1,30.4,29.93,WSW,257,10.0,16.0,56,0.00,,SCT070,0.04,VWS V14.01,2013-05-12 02:18:00,
2013-05-11 21:20:00,45.1,30.4,29.93,West,267,11.0,16.0,56,0.00,,SCT250,0.04,VWS V14.01,2013-05-12 02:20:00,
2013-05-11 21:23:00,44.9,30.6,29.93,West,276,9.0,15.0,57,0.00,,SCT070,0.04,VWS V14.01,2013-05-12 02:23:00,
2013-05-11 21:25:00,44.9,30.6,29.93,West,271,9.0,15.0,57,0.00,,FEW250,0.04,VWS V14.01,2013-05-12 02:25:00,
2013-05-11 21:28:00,44.7,30.4,29.93,West,261,12.0,16.0,57,0.00,,SCT070,0.04,VWS V14.01,2013-05-12 02:28:00,
2013-05-11 21:30:00,44.7,30.4,29.93,West,276,12.0,16.0,57,0.00,,SCT250,0.04,VWS V14.01,2013-05-12 02:30:00,
2013-05-11 21:33:00,44.7,30.9,29.93,WSW,251,11.0,15.0,58,0.00,,SCT070,0.04,VWS V14.01,2013-05-12 02:33:00,
2013-05-11 21:35:00,44.7,30.9,29.93,WSW,251,11.0,15.0,58,0.00,,SCT250,0.04,VWS V14.01,2013-05-12 02:35:00,
2013-05-11 21:38:00,44.7,30.9,29.93,West,274,11.0,16.0,58,0.00,,SCT070,0.04,VWS V14.01,2013-05-12 02:38:00,
2013-05-11 21:40:00,44.7,30.9,29.93,West,274,11.0,16.0,58,0.00,,SCT250,0.04,VWS V14.01,2013-05-12 02:40:00,
2013-05-11 21:43:00,44.5,30.7,29.93,WSW,253,11.0,16.0,58,0.00,,SCT070,0.04,VWS V14.01,2013-05-12 02:43:00,
2013-05-11 21:45:00,44.5,30.7,29.93,WSW,253,11.0,16.0,58,0.00,,SCT250,0.04,VWS V14.01,2013-05-12 02:45:00,
2013-05-11 21:48:00,44.4,31.0,29.93,West,270,8.0,15.0,59,0.00,,SCT070,0.04,VWS V14.01,2013-05-12 02:48:00,
2013-05-11 21:50:00,44.4,31.0,29.93,West,270,8.0,15.0,59,0.00,,SCT250,0.04,VWS V14.01,2013-05-12 02:50:00,
2013-05-11 21:53:00,44.4,31.0,29.93,West,265,10.0,13.0,59,0.00,,SCT070,0.04,VWS V14.01,2013-05-12 02:53:00,
2013-05-11 21:55:00,44.4,31.0,29.93,West,265,10.0,13.0,59,0.00,,SCT250,0.04,VWS V14.01,2013-05-12 02:55:00,
2013-05-11 21:59:00,44.3,31.3,29.93,West,268,11.0,15.0,60,0.00,,SCT070,0.04,VWS V14.01,2013-05-12 02:59:00,
2013-05-11 22:00:00,44.3,31.3,29.93,West,268,11.0,15.0,60,0.00,,SCT250,0.04,VWS V14.01,2013-05-12 03:00:00,
2013-05-11 22:04:00,44.3,31.3,29.93,West,265,6.0,13.0,60,0.00,,CLR,0.04,VWS V14.01,2013-05-12 03:04:00,
2013-05-11 22:05:00,44.3,31.3,29.93,North,360,12.0,13.0,60,0.00,,SCT250,0.04,VWS V14.01,2013-05-12 03:05:00,
2013-05-11 22:09:00,44.1,31.5,29.94,WNW,292,8.0,17.0,61,0.00,,CLR,0.04,VWS V14.01,2013-05-12 03:09:00,
2013-05-11 22:10:00,44.1,31.5,29.94,West,272,0.0,17.0,61,0.00,,SCT250,0.04,VWS V14.01,2013-05-12 03:10:00,
2013-05-11 22:14:00,43.9,31.7,29.94,West,277,6.0,18.0,62,0.00,,CLR,0.04,VWS V14.01,2013-05-12 03:14:00,
2013-05-11 22:15:00,44.0,31.8,29.94,WSW,256,9.0,18.0,62,0.00,,SCT250,0.04,VWS V14.01,2013-05-12 03:15:00,
2013-05-11 22:19:00,43.7,32.3,29.94,West,261,6.0,10.0,64,0.00,,CLR,0.04,VWS V14.01,2013-05-12 03:19:00,
2013-05-11 22:20:00,43.7,31.9,29.93,West,269,5.0,10.0,63,0.00,,SCT250,0.04,VWS V14.01,2013-05-12 03:20:00,
2013-05-11 22:24:00,43.4,32.0,29.94,West,261,11.0,15.0,64,0.00,,CLR,0.04,VWS V14.01,2013-05-12 03:24:00,
2013-05-11 22:25:00,43.4,32.0,29.94,SW,234,6.0,10.0,64,0.00,,SCT250,0.04,VWS V14.01,2013-05-12 03:25:00,
2013-05-11 22:29:00,43.6,32.2,29.94,North,360,14.0,16.0,64,0.00,,CLR,0.04,VWS V14.01,2013-05-12 03:29:00,
2013-05-11 22:30:00,43.5,32.2,29.94,WNW,285,9.0,15.0,64,0.00,,SCT250,0.04,VWS V14.01,2013-05-12 03:30:00,
2013-05-11 22:34:00,43.8,32.4,29.94,West,268,8.0,17.0,64,0.00,,CLR,0.04,VWS V14.01,2013-05-12 03:34:00,
2013-05-11 22:35:00,43.8,32.4,29.94,West,268,6.0,17.0,64,0.00,,SCT250,0.04,VWS V14.01,2013-05-12 03:35:00,
2013-05-11 22:39:00,43.8,30.8,29.94,WNW,303,12.0,23.0,60,0.00,,CLR,0.04,VWS V14.01,2013-05-12 03:39:00,
2013-05-11 22:40:00,43.8,31.6,29.94,WSW,250,14.0,19.0,62,0.00,,SCT250,0.04,VWS V14.01,2013-05-12 03:40:00,
2013-05-11 22:44:00,44.1,30.3,29.94,NW,306,9.0,17.0,58,0.00,,CLR,0.04,VWS V14.01,2013-05-12 03:44:00,
2013-05-11 22:45:00,44.1,30.7,29.94,NNW,344,8.0,23.0,59,0.00,,SCT250,0.04,VWS V14.01,2013-05-12 03:45:00,
2013-05-11 22:49:00,44.0,30.2,29.94,NNW,328,6.0,19.0,58,0.00,,CLR,0.04,VWS V14.01,2013-05-12 03:49:00,
2013-05-11 22:50:00,44.0,29.8,29.94,WNW,291,14.0,19.0,57,0.00,,SCT250,0.04,VWS V14.01,2013-05-12 03:50:00,
2013-05-11 22:55:00,43.9,29.7,29.94,WNW,297,9.0,20.0,57,0.00,,CLR,0.04,VWS V14.01,2013-05-12 03:55:00,
2013-05-11 23:00:00,43.6,29.4,29.94,WNW,283,6.0,23.0,57,0.00,,CLR,0.04,VWS V14.01,2013-05-12 04:00:00,
2013-05-11 23:01:00,43.6,29.4,29.94,NW,311,8.0,23.0,57,0.00,,CLR,0.04,VWS V14.01,2013-05-12 04:01:00,
2013-05-11 23:02:00,43.5,29.3,29.94,WNW,302,9.0,23.0,57,0.00,,CLR,0.04,VWS V14.01,2013-05-12 04:02:00,
2013-05-11 23:03:00,43.5,29.7,29.94,NNW,341,6.0,18.0,58,0.00,,CLR,0.04,VWS V14.01,2013-05-12 04:03:00,
2013-05-11 23:05:00,43.4,29.6,29.94,NNW,332,19.0,19.0,58,0.00,,SCT250,0.04,VWS V14.01,2013-05-12 04:05:00,
2013-05-11 23:08:00,43.2,29.9,29.94,WNW,288,12.0,21.0,59,0.00,,CLR,0.04,VWS V14.01,2013-05-12 04:08:00,
2013-05-11 23:10:00,43.2,29.9,29.94,WNW,288,12.0,21.0,59,0.00,,SCT250,0.04,VWS V14.01,2013-05-12 04:10:00,
2013-05-11 23:12:00,43.1,30.2,29.94,NW,325,17.0,18.0,60,0.00,,CLR,0.04,VWS V14.01,2013-05-12 04:12:00,
2013-05-11 23:15:00,43.0,30.1,29.94,NW,313,12.0,18.0,60,0.00,,SCT250,0.04,VWS V14.01,2013-05-12 04:15:00,
2013-05-11 23:17:00,42.9,30.0,29.94,NNW,337,4.0,16.0,60,0.00,,CLR,0.04,VWS V14.01,2013-05-12 04:17:00,
2013-05-11 23:20:00,42.8,30.3,29.94,NW,313,9.0,16.0,61,0.00,,SCT250,0.04,VWS V14.01,2013-05-12 04:20:00,
2013-05-11 23:22:00,42.7,30.2,29.94,NW,309,10.0,17.0,61,0.00,,CLR,0.04,VWS V14.01,2013-05-12 04:22:00,
2013-05-11 23:25:00,42.6,30.1,29.95,North,350,10.0,17.0,61,0.00,,SCT250,0.04,VWS V14.01,2013-05-12 04:25:00,
2013-05-11 23:27:00,42.5,30.8,29.95,NW,308,10.0,17.0,63,0.00,,CLR,0.04,VWS V14.01,2013-05-12 04:27:00,
2013-05-11 23:30:00,42.5,30.8,29.95,WNW,295,9.0,18.0,63,0.00,,SCT250,0.04,VWS V14.01,2013-05-12 04:30:00,
2013-05-11 23:32:00,42.4,30.7,29.95,SW,217,0.0,18.0,63,0.00,,CLR,0.04,VWS V14.01,2013-05-12 04:32:00,
2013-05-11 23:35:00,42.3,31.0,29.95,NW,307,9.0,14.0,64,0.00,,SCT250,0.04,VWS V14.01,2013-05-12 04:35:00,
2013-05-11 23:37:00,42.3,31.0,29.95,NW,309,12.0,23.0,64,0.00,,CLR,0.04,VWS V14.01,2013-05-12 04:37:00,
2013-05-11 23:40:00,42.4,30.7,29.95,NW,311,14.0,23.0,63,0.00,,SCT250,0.04,VWS V14.01,2013-05-12 04:40:00,
2013-05-11 23:42:00,42.4,31.1,29.95,WNW,289,15.0,27.0,64,0.00,,CLR,0.04,VWS V14.01,2013-05-12 04:42:00,
2013-05-11 23:45:00,42.4,31.1,29.96,NNW,327,15.0,27.0,64,0.00,,SCT250,0.04,VWS V14.01,2013-05-12 04:45:00,
2013-05-11 23:47:00,42.3,31.0,29.96,NW,308,10.0,25.0,64,0.00,,CLR,0.04,VWS V14.01,2013-05-12 04:47:00,
2013-05-11 23:50:00,42.2,30.9,29.96,NW,311,9.0,25.0,64,0.00,,SCT250,0.04,VWS V14.01,2013-05-12 04:50:00,
2013-05-11 23:52:00,42.0,30.3,29.96,WNW,286,17.0,26.0,63,0.00,,CLR,0.04,VWS V14.01,2013-05-12 04:52:00,
2013-05-11 23:55:00,41.8,30.5,29.96,NW,313,11.0,25.0,64,0.00,,SCT250,0.04,VWS V14.01,2013-05-12 04:55:00,
2013-05-11 23:57:00,41.6,31.5,29.96,WNW,290,8.0,23.0,67,0.00,,CLR,0.04,VWS V14.01,2013-05-12 04:57:00,